Green Cadiz — EAUE — position and weather

sailwx.info

Track history (hours):
 
Tides and Currents Weather Stations Pressure Air Temp Water Temp Dewpoint Dewpoint Depression Visibility Wind Speed Wind Dir Waves Ship Positions

Green Cadiz

Last reported at 2018-Jul-23 00:30 UTC. Time now 2018-Jul-23 00:27 UTC.
Position N 36°07' W 005°22'.

Length 68 m.

Type: Tanker. MMSI: 224805000.

Date/timePositionNaut miles runAvg speedWind from/ knotsBaromVisibWave heightAir tempDewpointWater temp
2018-Jul-23 00:30N 36°07' W 005°22'0 0.1
2018-Jul-23 00:00N 36°07' W 005°22'0 0.2
2018-Jul-22 23:30N 36°07' W 005°22'0 0.0
2018-Jul-22 23:00N 36°07' W 005°22'0 0.0
2018-Jul-22 22:29N 36°07' W 005°22'1 3.0
2018-Jul-22 22:00N 36°08' W 005°23'2 4.4
2018-Jul-22 21:28N 36°08' W 005°26'0 0.1
2018-Jul-22 20:28N 36°08' W 005°26'0 0.0
2018-Jul-22 20:00N 36°08' W 005°26'0 0.0
2018-Jul-22 19:17N 36°08' W 005°26'0 0.0
2018-Jul-22 19:00N 36°08' W 005°26'0 0.0
2018-Jul-22 18:28N 36°08' W 005°26'0 0.0
2018-Jul-22 18:00N 36°08' W 005°26'0 0.0
2018-Jul-22 17:26N 36°08' W 005°26'0 0.0
2018-Jul-22 16:45N 36°08' W 005°26'0 0.0
2018-Jul-22 16:31N 36°08' W 005°26'0 0.1
2018-Jul-22 16:00N 36°08' W 005°26'4 4.0
2018-Jul-22 15:00N 36°07' W 005°21'0 0.0
2018-Jul-22 14:31N 36°07' W 005°21'0 0.0
2018-Jul-22 14:00N 36°07' W 005°21'0 0.0
2018-Jul-22 13:30N 36°07' W 005°21'0 0.0
2018-Jul-22 13:00N 36°07' W 005°21'0 0.1
2018-Jul-22 12:30N 36°07' W 005°21'0 0.1
2018-Jul-22 12:00N 36°07' W 005°21'0 0.1
2018-Jul-22 11:30N 36°07' W 005°21'0 0.1
2018-Jul-22 11:00N 36°07' W 005°21'1 1.2
2018-Jul-22 10:30N 36°07' W 005°22'2 3.9
2018-Jul-22 10:00N 36°09' W 005°23'0 0.2
2018-Jul-22 09:30N 36°09' W 005°23'0 0.7
2018-Jul-22 09:00N 36°09' W 005°23'1 1.3
2018-Jul-22 08:29N 36°09' W 005°22'0 0.6
2018-Jul-22 07:55N 36°08' W 005°22'0 0.1
2018-Jul-22 07:30N 36°08' W 005°22'0 0.1
2018-Jul-22 07:00N 36°08' W 005°22'0 0.2
2018-Jul-22 06:30N 36°08' W 005°22'0 0.1
2018-Jul-22 06:00N 36°08' W 005°22'0 0.0
2018-Jul-22 05:30N 36°08' W 005°22'0 0.0
2018-Jul-22 05:00N 36°08' W 005°22'0 0.0
2018-Jul-22 04:31N 36°08' W 005°22'0 0.0
2018-Jul-22 04:01N 36°08' W 005°22'0 0.0
2018-Jul-22 03:30N 36°08' W 005°22'0 0.0
2018-Jul-22 03:00N 36°08' W 005°22'0 0.0
2018-Jul-22 02:30N 36°08' W 005°22'0 0.6
2018-Jul-22 02:00N 36°08' W 005°23'2 4.9
2018-Jul-22 01:30N 36°09' W 005°25'1 1.8
2018-Jul-22 01:00N 36°08' W 005°26'0 0.0
2018-Jul-22 00:30N 36°08' W 005°26'0 0.0
2018-Jul-22 00:00N 36°08' W 005°26'0 0.0
2018-Jul-21 23:30N 36°08' W 005°26'0 0.0
2018-Jul-21 23:00N 36°08' W 005°26'0 0.0
2018-Jul-21 22:30N 36°08' W 005°26'0 0.0
2018-Jul-21 22:00N 36°08' W 005°26'0 0.0
2018-Jul-21 21:30N 36°08' W 005°26'0 0.0
2018-Jul-21 21:00N 36°08' W 005°26'0 0.0
2018-Jul-21 20:30N 36°08' W 005°26'0 0.0
2018-Jul-21 20:00N 36°08' W 005°26'0 0.0
2018-Jul-21 19:31N 36°08' W 005°26'0 0.0
2018-Jul-21 19:00N 36°08' W 005°26'1 1.1
2018-Jul-21 18:30N 36°09' W 005°26'2 4.3
2018-Jul-21 18:00N 36°09' W 005°23'1 1.1
2018-Jul-21 17:30N 36°09' W 005°23'0 0.1
2018-Jul-21 17:01N 36°09' W 005°23'0 0.1
2018-Jul-21 16:30N 36°09' W 005°23'0 0.1
2018-Jul-21 16:00N 36°09' W 005°23'0 0.0
2018-Jul-21 15:30N 36°08' W 005°23'0 0.1
2018-Jul-21 15:00N 36°09' W 005°23'0 0.0
2018-Jul-21 14:30N 36°09' W 005°23'1 1.4
2018-Jul-21 13:30N 36°07' W 005°22'0 0.1
2018-Jul-21 13:00N 36°07' W 005°22'0 0.0
2018-Jul-21 12:30N 36°07' W 005°22'0 0.0
2018-Jul-21 12:00N 36°07' W 005°22'0 0.0
2018-Jul-21 11:31N 36°07' W 005°22'0 0.1
2018-Jul-21 10:54N 36°07' W 005°22'0 0.0
2018-Jul-21 10:30N 36°07' W 005°22'0 0.0
2018-Jul-21 10:00N 36°07' W 005°22'0 0.1
2018-Jul-21 09:28N 36°07' W 005°22'0 0.1
2018-Jul-21 09:00N 36°07' W 005°22'0 0.1
2018-Jul-21 08:30N 36°07' W 005°22'0 0.3
2018-Jul-21 08:00N 36°07' W 005°22'0 0.3
2018-Jul-21 07:30N 36°07' W 005°22'0 0.1
2018-Jul-21 07:01N 36°07' W 005°22'1 1.5
2018-Jul-21 06:06N 36°08' W 005°23'0 1.7
2018-Jul-21 06:01N 36°08' W 005°23'0 0.3
2018-Jul-21 05:30N 36°08' W 005°22'0 0.4
2018-Jul-21 05:00N 36°08' W 005°23'0 0.1
2018-Jul-21 04:30N 36°08' W 005°23'0 0.0
2018-Jul-21 04:00N 36°08' W 005°23'0 0.0
2018-Jul-21 03:30N 36°08' W 005°23'0 0.0
2018-Jul-21 03:00N 36°08' W 005°23'0 0.0
2018-Jul-21 02:30N 36°08' W 005°23'0 0.0
2018-Jul-21 02:00N 36°08' W 005°23'0 0.0
2018-Jul-21 01:30N 36°08' W 005°23'0 0.1
2018-Jul-21 01:00N 36°08' W 005°23'1 1.1
2018-Jul-21 00:31N 36°08' W 005°22'0 0.2
2018-Jul-21 00:00N 36°08' W 005°22'0 0.2
2018-Jul-20 23:30N 36°08' W 005°22'0 0.1
2018-Jul-20 23:00N 36°08' W 005°22'0 0.0
2018-Jul-20 22:31N 36°08' W 005°22'0 0.0
2018-Jul-20 22:00N 36°08' W 005°22'0 0.1
2018-Jul-20 21:30N 36°08' W 005°22'0 0.1
2018-Jul-20 21:00N 36°08' W 005°22'0 0.2
2018-Jul-20 20:30N 36°08' W 005°22'0 0.1
2018-Jul-20 20:00N 36°08' W 005°22'0 0.1
2018-Jul-20 19:30N 36°08' W 005°22'0 0.2
2018-Jul-20 19:00N 36°08' W 005°22'3 5.5
2018-Jul-20 18:30N 36°09' W 005°25'1 1.2
2018-Jul-20 18:00N 36°08' W 005°26'  
2018-Jul-18 05:43N 36°09' W 005°22'0 0.1
2018-Jul-18 05:28N 36°09' W 005°22'0 0.0
2018-Jul-18 04:58N 36°09' W 005°22'0 0.0
2018-Jul-18 04:19N 36°09' W 005°22'0 0.1
2018-Jul-18 03:59N 36°09' W 005°22'0 0.1
2018-Jul-18 03:30N 36°09' W 005°22'0 0.0
2018-Jul-18 02:59N 36°09' W 005°22'0 0.0
2018-Jul-18 02:30N 36°09' W 005°22'0 0.1
2018-Jul-18 02:00N 36°09' W 005°22'0 0.1
2018-Jul-18 01:30N 36°09' W 005°22'1 1.1
2018-Jul-18 00:58N 36°09' W 005°22'0 0.0
2018-Jul-18 00:26N 36°09' W 005°22'0 0.0
2018-Jul-18 00:00N 36°09' W 005°22'0 0.0
2018-Jul-17 23:30N 36°09' W 005°22'0 0.0
2018-Jul-17 22:59N 36°09' W 005°22'0 0.0
2018-Jul-17 22:30N 36°09' W 005°22'0 0.0
2018-Jul-17 22:01N 36°09' W 005°22'0 0.0
2018-Jul-17 21:29N 36°09' W 005°22'2 3.8
2018-Jul-17 21:00N 36°09' W 005°25'1 2.6
2018-Jul-17 20:30N 36°08' W 005°26'0 0.0
2018-Jul-17 20:00N 36°08' W 005°26'0 0.0
2018-Jul-17 19:31N 36°08' W 005°26'0 0.0
2018-Jul-17 19:00N 36°08' W 005°26'0 0.0
2018-Jul-17 18:30N 36°08' W 005°26'0 0.0
2018-Jul-17 18:01N 36°08' W 005°26'0 0.0
2018-Jul-17 17:30N 36°08' W 005°26'0 0.0
2018-Jul-17 15:34N 36°08' W 005°26'0 0.0
2018-Jul-17 15:29N 36°08' W 005°26'0 0.0
2018-Jul-17 14:59N 36°08' W 005°26'0 0.0
2018-Jul-17 14:30N 36°08' W 005°26'0 0.3
2018-Jul-17 12:57N 36°09' W 005°26'0 0.0
2018-Jul-17 12:27N 36°09' W 005°26'0 0.0
2018-Jul-17 11:59N 36°09' W 005°26'0 0.0
2018-Jul-17 05:48N 36°09' W 005°26'0 0.0
2018-Jul-17 05:30N 36°09' W 005°26'0 0.0
2018-Jul-17 04:59N 36°09' W 005°26'0 0.0
2018-Jul-17 04:31N 36°09' W 005°26'0 0.0
2018-Jul-17 04:00N 36°09' W 005°26'0 0.0
2018-Jul-17 03:30N 36°09' W 005°26'0 0.0
2018-Jul-17 02:59N 36°09' W 005°26'0 0.0
2018-Jul-17 02:30N 36°09' W 005°26'0 0.0
2018-Jul-17 02:00N 36°09' W 005°26'0 0.0
2018-Jul-17 01:31N 36°09' W 005°26'0 0.0
2018-Jul-17 01:00N 36°09' W 005°26'0 0.0
2018-Jul-17 00:30N 36°09' W 005°26'0 0.0
2018-Jul-16 23:29N 36°09' W 005°26'0 0.0
2018-Jul-16 23:00N 36°09' W 005°26'0 0.0
2018-Jul-16 22:00N 36°09' W 005°26'0 0.0
2018-Jul-16 21:28N 36°09' W 005°26'0 0.0
2018-Jul-16 20:58N 36°09' W 005°26'0 0.0
2018-Jul-16 20:29N 36°09' W 005°26'0 0.0
2018-Jul-16 20:00N 36°09' W 005°26'0 0.0
2018-Jul-16 19:28N 36°09' W 005°26'0 0.0
2018-Jul-16 19:00N 36°09' W 005°26'0 0.0
2018-Jul-16 18:27N 36°09' W 005°26'1 2.2
2018-Jul-16 17:55N 36°09' W 005°24'2 3.8
2018-Jul-16 17:25N 36°08' W 005°22'0 0.0
2018-Jul-16 17:00N 36°08' W 005°22'0 0.1
2018-Jul-16 16:30N 36°08' W 005°22'0 0.0
2018-Jul-16 15:59N 36°08' W 005°22'0 0.0
2018-Jul-16 15:28N 36°08' W 005°22'0 0.1
2018-Jul-16 15:00N 36°08' W 005°22'0 0.4
2018-Jul-16 14:30N 36°08' W 005°22'0 0.0
2018-Jul-16 14:00N 36°08' W 005°22'0 0.2
2018-Jul-16 13:31N 36°08' W 005°22'3 0.5
2018-Jul-16 06:38N 36°10' W 005°26'0 0.1
2018-Jul-16 06:30N 36°10' W 005°26'0 0.0
2018-Jul-16 05:32N 36°10' W 005°26'0 0.2
2018-Jul-16 05:30N 36°10' W 005°26'0 0.0
2018-Jul-16 04:19N 36°10' W 005°26'0 0.1
2018-Jul-16 03:51N 36°10' W 005°26'0 0.0
2018-Jul-16 03:22N 36°10' W 005°26'0 0.0
2018-Jul-16 02:33N 36°10' W 005°26'0 0.1
2018-Jul-16 02:27N 36°10' W 005°26'0 0.0
2018-Jul-16 01:53N 36°10' W 005°26'0 0.0
2018-Jul-16 01:27N 36°10' W 005°26'0 0.0
2018-Jul-16 00:56N 36°10' W 005°26'0 0.0
2018-Jul-16 00:30N 36°10' W 005°26'2 3.2
2018-Jul-15 23:59N 36°09' W 005°24'2 5.1
2018-Jul-15 23:30N 36°07' W 005°22'0 0.4
2018-Jul-15 23:00N 36°07' W 005°22'0 0.1
2018-Jul-15 22:05N 36°07' W 005°22'0 0.2
2018-Jul-15 21:59N 36°07' W 005°22'0 0.2
2018-Jul-15 21:30N 36°07' W 005°22'0 0.0
2018-Jul-15 20:59N 36°07' W 005°22'0 0.0
2018-Jul-15 20:01N 36°07' W 005°22'0 2.0
2018-Jul-15 20:00N 36°07' W 005°22'2 0.8
2018-Jul-15 17:09N 36°09' W 005°22'0 0.5
2018-Jul-15 17:00N 36°09' W 005°23'1 2.4
2018-Jul-15 16:30N 36°08' W 005°22'0 0.2
2018-Jul-15 16:00N 36°08' W 005°22'0 0.1
2018-Jul-15 15:30N 36°08' W 005°22'0 0.1
2018-Jul-15 15:00N 36°08' W 005°22'0 0.0
2018-Jul-15 13:33N 36°08' W 005°22'0 0.1
2018-Jul-15 13:30N 36°08' W 005°22'0 0.0
2018-Jul-15 12:59N 36°08' W 005°22'0 0.0
2018-Jul-15 12:30N 36°08' W 005°22'0 0.1
2018-Jul-15 12:00N 36°08' W 005°22'0 0.1
2018-Jul-15 11:16N 36°08' W 005°22'3 6.0
2018-Jul-15 10:46N 36°09' W 005°26'1 0.5
2018-Jul-15 09:38N 36°08' W 005°26'0 0.0
2018-Jul-15 09:25N 36°08' W 005°26'0 0.0
2018-Jul-15 09:00N 36°08' W 005°26'0 0.0
2018-Jul-15 08:30N 36°08' W 005°26'0 0.0
2018-Jul-15 08:00N 36°08' W 005°26'0 0.0
2018-Jul-15 07:27N 36°08' W 005°26'0 0.0
2018-Jul-15 07:00N 36°08' W 005°26'0 0.0
2018-Jul-15 06:19N 36°08' W 005°26'0 0.0
2018-Jul-15 06:00N 36°08' W 005°26'0 0.0
2018-Jul-15 05:30N 36°08' W 005°26'0 0.0
2018-Jul-15 05:01N 36°08' W 005°26'0 0.0
2018-Jul-15 04:30N 36°08' W 005°26'1 2.8
2018-Jul-15 03:59N 36°09' W 005°24'3 6.0
2018-Jul-15 03:30N 36°07' W 005°22'0 0.9
2018-Jul-15 03:00N 36°07' W 005°21'0 0.0
2018-Jul-15 02:30N 36°07' W 005°21'0 0.0
2018-Jul-15 02:00N 36°07' W 005°21'0 0.0
2018-Jul-15 01:30N 36°07' W 005°21'0 0.0
2018-Jul-15 01:00N 36°07' W 005°21'0 0.1
2018-Jul-15 00:30N 36°07' W 005°21'0 0.0
2018-Jul-15 00:00N 36°07' W 005°21'0 0.0
2018-Jul-14 23:30N 36°07' W 005°21'0 0.0
2018-Jul-14 22:58N 36°07' W 005°21'0 0.2
2018-Jul-14 22:30N 36°07' W 005°21'2 1.2
2018-Jul-14 20:31N 36°09' W 005°22'0 0.0
2018-Jul-14 20:30N 36°09' W 005°22'0 0.0
2018-Jul-14 20:00N 36°09' W 005°22'0 0.0
2018-Jul-14 19:30N 36°09' W 005°22'0 0.0
2018-Jul-14 19:01N 36°09' W 005°22'0 0.0
2018-Jul-14 18:27N 36°09' W 005°22'0 0.1
2018-Jul-14 18:00N 36°09' W 005°22'0 0.1
2018-Jul-14 17:30N 36°09' W 005°22'1 2.1
2018-Jul-14 17:00N 36°08' W 005°23'0 0.3
2018-Jul-14 16:29N 36°08' W 005°23'0 0.0
2018-Jul-14 16:00N 36°08' W 005°23'0 0.0
2018-Jul-14 15:30N 36°08' W 005°23'0 0.1
2018-Jul-14 15:00N 36°08' W 005°23'0 0.0
2018-Jul-14 14:29N 36°08' W 005°23'0 0.0
2018-Jul-14 13:31N 36°08' W 005°23'0 0.0
2018-Jul-14 13:00N 36°08' W 005°23'0 0.2
2018-Jul-14 12:30N 36°08' W 005°23'0 0.2
2018-Jul-14 11:21N 36°08' W 005°23'0 0.0
2018-Jul-14 10:12N 36°08' W 005°23'0 0.0
2018-Jul-14 10:00N 36°08' W 005°23'0 0.0
2018-Jul-14 09:30N 36°08' W 005°23'0 0.1
2018-Jul-14 09:00N 36°08' W 005°23'3 1.0
2018-Jul-14 06:23N 36°08' W 005°26'0 0.0
2018-Jul-14 06:00N 36°08' W 005°26'0 0.0
2018-Jul-14 05:29N 36°08' W 005°26'0 0.0
2018-Jul-14 04:53N 36°08' W 005°26'0 0.0
2018-Jul-14 04:30N 36°08' W 005°26'0 0.0
2018-Jul-14 03:55N 36°08' W 005°26'0 0.0
2018-Jul-14 03:22N 36°08' W 005°26'0 0.0
2018-Jul-14 03:00N 36°08' W 005°26'0 0.0
2018-Jul-14 02:30N 36°08' W 005°26'0 0.0
2018-Jul-14 02:00N 36°08' W 005°26'0 0.0
2018-Jul-14 01:30N 36°08' W 005°26'1 2.6
2018-Jul-14 00:58N 36°09' W 005°24'3 5.9
2018-Jul-14 00:30N 36°07' W 005°22'0 0.1
2018-Jul-14 00:00N 36°07' W 005°22'0 0.1
2018-Jul-13 23:30N 36°07' W 005°22'0 0.1
2018-Jul-13 22:46N 36°07' W 005°22'0 0.1
2018-Jul-13 21:33N 36°07' W 005°22'0 0.2
2018-Jul-13 21:26N 36°07' W 005°22'0 0.3
2018-Jul-13 20:50N 36°07' W 005°22'0 0.0
2018-Jul-13 20:28N 36°07' W 005°22'0 0.4
2018-Jul-13 19:26N 36°07' W 005°22'0 0.1
2018-Jul-13 18:53N 36°07' W 005°22'0 0.1
2018-Jul-13 18:28N 36°07' W 005°22'0 0.1
2018-Jul-13 17:56N 36°07' W 005°22'0 0.1
2018-Jul-13 17:23N 36°07' W 005°22'0 0.1
2018-Jul-13 16:24N 36°08' W 005°22'0 0.0
2018-Jul-13 12:09N 36°07' W 005°22'0 0.0
2018-Jul-13 11:51N 36°07' W 005°22'  
Track history (hours):
 
Tides and Currents Weather Stations Pressure Air Temp Water Temp Dewpoint Dewpoint Depression Visibility Wind Speed Wind Dir Waves Ship Positions

Green Cadiz

Last reported at 2018-Jul-23 00:30 UTC. Time now 2018-Jul-23 00:27 UTC.
Position N 36°07' W 005°22'.

Length 68 m.

Type: Tanker. MMSI: 224805000.

Date/timePositionNaut miles runAvg speedWind from/ knotsBaromVisibWave heightAir tempDewpointWater temp
2018-Jul-23 00:30N 36°07' W 005°22'0 0.1
2018-Jul-23 00:00N 36°07' W 005°22'0 0.2
2018-Jul-22 23:30N 36°07' W 005°22'0 0.0
2018-Jul-22 23:00N 36°07' W 005°22'0 0.0
2018-Jul-22 22:29N 36°07' W 005°22'1 3.0
2018-Jul-22 22:00N 36°08' W 005°23'2 4.4
2018-Jul-22 21:28N 36°08' W 005°26'0 0.1
2018-Jul-22 20:28N 36°08' W 005°26'0 0.0
2018-Jul-22 20:00N 36°08' W 005°26'0 0.0
2018-Jul-22 19:17N 36°08' W 005°26'0 0.0
2018-Jul-22 19:00N 36°08' W 005°26'0 0.0
2018-Jul-22 18:28N 36°08' W 005°26'0 0.0
2018-Jul-22 18:00N 36°08' W 005°26'0 0.0
2018-Jul-22 17:26N 36°08' W 005°26'0 0.0
2018-Jul-22 16:45N 36°08' W 005°26'0 0.0
2018-Jul-22 16:31N 36°08' W 005°26'0 0.1
2018-Jul-22 16:00N 36°08' W 005°26'4 4.0
2018-Jul-22 15:00N 36°07' W 005°21'0 0.0
2018-Jul-22 14:31N 36°07' W 005°21'0 0.0
2018-Jul-22 14:00N 36°07' W 005°21'0 0.0
2018-Jul-22 13:30N 36°07' W 005°21'0 0.0
2018-Jul-22 13:00N 36°07' W 005°21'0 0.1
2018-Jul-22 12:30N 36°07' W 005°21'0 0.1
2018-Jul-22 12:00N 36°07' W 005°21'0 0.1
2018-Jul-22 11:30N 36°07' W 005°21'0 0.1
2018-Jul-22 11:00N 36°07' W 005°21'1 1.2
2018-Jul-22 10:30N 36°07' W 005°22'2 3.9
2018-Jul-22 10:00N 36°09' W 005°23'0 0.2
2018-Jul-22 09:30N 36°09' W 005°23'0 0.7
2018-Jul-22 09:00N 36°09' W 005°23'1 1.3
2018-Jul-22 08:29N 36°09' W 005°22'0 0.6
2018-Jul-22 07:55N 36°08' W 005°22'0 0.1
2018-Jul-22 07:30N 36°08' W 005°22'0 0.1
2018-Jul-22 07:00N 36°08' W 005°22'0 0.2
2018-Jul-22 06:30N 36°08' W 005°22'0 0.1
2018-Jul-22 06:00N 36°08' W 005°22'0 0.0
2018-Jul-22 05:30N 36°08' W 005°22'0 0.0
2018-Jul-22 05:00N 36°08' W 005°22'0 0.0
2018-Jul-22 04:31N 36°08' W 005°22'0 0.0
2018-Jul-22 04:01N 36°08' W 005°22'0 0.0
2018-Jul-22 03:30N 36°08' W 005°22'0 0.0
2018-Jul-22 03:00N 36°08' W 005°22'0 0.0
2018-Jul-22 02:30N 36°08' W 005°22'0 0.6
2018-Jul-22 02:00N 36°08' W 005°23'2 4.9
2018-Jul-22 01:30N 36°09' W 005°25'1 1.8
2018-Jul-22 01:00N 36°08' W 005°26'0 0.0
2018-Jul-22 00:30N 36°08' W 005°26'0 0.0
2018-Jul-22 00:00N 36°08' W 005°26'0 0.0
2018-Jul-21 23:30N 36°08' W 005°26'0 0.0
2018-Jul-21 23:00N 36°08' W 005°26'0 0.0
2018-Jul-21 22:30N 36°08' W 005°26'0 0.0
2018-Jul-21 22:00N 36°08' W 005°26'0 0.0
2018-Jul-21 21:30N 36°08' W 005°26'0 0.0
2018-Jul-21 21:00N 36°08' W 005°26'0 0.0
2018-Jul-21 20:30N 36°08' W 005°26'0 0.0
2018-Jul-21 20:00N 36°08' W 005°26'0 0.0
2018-Jul-21 19:31N 36°08' W 005°26'0 0.0
2018-Jul-21 19:00N 36°08' W 005°26'1 1.1
2018-Jul-21 18:30N 36°09' W 005°26'2 4.3
2018-Jul-21 18:00N 36°09' W 005°23'1 1.1
2018-Jul-21 17:30N 36°09' W 005°23'0 0.1
2018-Jul-21 17:01N 36°09' W 005°23'0 0.1
2018-Jul-21 16:30N 36°09' W 005°23'0 0.1
2018-Jul-21 16:00N 36°09' W 005°23'0 0.0
2018-Jul-21 15:30N 36°08' W 005°23'0 0.1
2018-Jul-21 15:00N 36°09' W 005°23'0 0.0
2018-Jul-21 14:30N 36°09' W 005°23'1 1.4
2018-Jul-21 13:30N 36°07' W 005°22'0 0.1
2018-Jul-21 13:00N 36°07' W 005°22'0 0.0
2018-Jul-21 12:30N 36°07' W 005°22'0 0.0
2018-Jul-21 12:00N 36°07' W 005°22'0 0.0
2018-Jul-21 11:31N 36°07' W 005°22'0 0.1
2018-Jul-21 10:54N 36°07' W 005°22'0 0.0
2018-Jul-21 10:30N 36°07' W 005°22'0 0.0
2018-Jul-21 10:00N 36°07' W 005°22'0 0.1
2018-Jul-21 09:28N 36°07' W 005°22'0 0.1
2018-Jul-21 09:00N 36°07' W 005°22'0 0.1
2018-Jul-21 08:30N 36°07' W 005°22'0 0.3
2018-Jul-21 08:00N 36°07' W 005°22'0 0.3
2018-Jul-21 07:30N 36°07' W 005°22'0 0.1
2018-Jul-21 07:01N 36°07' W 005°22'1 1.5
2018-Jul-21 06:06N 36°08' W 005°23'0 1.7
2018-Jul-21 06:01N 36°08' W 005°23'0 0.3
2018-Jul-21 05:30N 36°08' W 005°22'0 0.4
2018-Jul-21 05:00N 36°08' W 005°23'0 0.1
2018-Jul-21 04:30N 36°08' W 005°23'0 0.0
2018-Jul-21 04:00N 36°08' W 005°23'0 0.0
2018-Jul-21 03:30N 36°08' W 005°23'0 0.0
2018-Jul-21 03:00N 36°08' W 005°23'0 0.0
2018-Jul-21 02:30N 36°08' W 005°23'0 0.0
2018-Jul-21 02:00N 36°08' W 005°23'0 0.0
2018-Jul-21 01:30N 36°08' W 005°23'0 0.1
2018-Jul-21 01:00N 36°08' W 005°23'1 1.1
2018-Jul-21 00:31N 36°08' W 005°22'0 0.2
2018-Jul-21 00:00N 36°08' W 005°22'0 0.2
2018-Jul-20 23:30N 36°08' W 005°22'0 0.1
2018-Jul-20 23:00N 36°08' W 005°22'0 0.0
2018-Jul-20 22:31N 36°08' W 005°22'0 0.0
2018-Jul-20 22:00N 36°08' W 005°22'0 0.1
2018-Jul-20 21:30N 36°08' W 005°22'0 0.1
2018-Jul-20 21:00N 36°08' W 005°22'0 0.2
2018-Jul-20 20:30N 36°08' W 005°22'0 0.1
2018-Jul-20 20:00N 36°08' W 005°22'0 0.1
2018-Jul-20 19:30N 36°08' W 005°22'0 0.2
2018-Jul-20 19:00N 36°08' W 005°22'3 5.5
2018-Jul-20 18:30N 36°09' W 005°25'1 1.2
2018-Jul-20 18:00N 36°08' W 005°26'  
2018-Jul-18 05:43N 36°09' W 005°22'0 0.1
2018-Jul-18 05:28N 36°09' W 005°22'0 0.0
2018-Jul-18 04:58N 36°09' W 005°22'0 0.0
2018-Jul-18 04:19N 36°09' W 005°22'0 0.1
2018-Jul-18 03:59N 36°09' W 005°22'0 0.1
2018-Jul-18 03:30N 36°09' W 005°22'0 0.0
2018-Jul-18 02:59N 36°09' W 005°22'0 0.0
2018-Jul-18 02:30N 36°09' W 005°22'0 0.1
2018-Jul-18 02:00N 36°09' W 005°22'0 0.1
2018-Jul-18 01:30N 36°09' W 005°22'1 1.1
2018-Jul-18 00:58N 36°09' W 005°22'0 0.0
2018-Jul-18 00:26N 36°09' W 005°22'0 0.0
2018-Jul-18 00:00N 36°09' W 005°22'0 0.0
2018-Jul-17 23:30N 36°09' W 005°22'0 0.0
2018-Jul-17 22:59N 36°09' W 005°22'0 0.0
2018-Jul-17 22:30N 36°09' W 005°22'0 0.0
2018-Jul-17 22:01N 36°09' W 005°22'0 0.0
2018-Jul-17 21:29N 36°09' W 005°22'2 3.8
2018-Jul-17 21:00N 36°09' W 005°25'1 2.6
2018-Jul-17 20:30N 36°08' W 005°26'0 0.0
2018-Jul-17 20:00N 36°08' W 005°26'0 0.0
2018-Jul-17 19:31N 36°08' W 005°26'0 0.0
2018-Jul-17 19:00N 36°08' W 005°26'0 0.0
2018-Jul-17 18:30N 36°08' W 005°26'0 0.0
2018-Jul-17 18:01N 36°08' W 005°26'0 0.0
2018-Jul-17 17:30N 36°08' W 005°26'0 0.0
2018-Jul-17 15:34N 36°08' W 005°26'0 0.0
2018-Jul-17 15:29N 36°08' W 005°26'0 0.0
2018-Jul-17 14:59N 36°08' W 005°26'0 0.0
2018-Jul-17 14:30N 36°08' W 005°26'0 0.3
2018-Jul-17 12:57N 36°09' W 005°26'0 0.0
2018-Jul-17 12:27N 36°09' W 005°26'0 0.0
2018-Jul-17 11:59N 36°09' W 005°26'0 0.0
2018-Jul-17 05:48N 36°09' W 005°26'0 0.0
2018-Jul-17 05:30N 36°09' W 005°26'0 0.0
2018-Jul-17 04:59N 36°09' W 005°26'0 0.0
2018-Jul-17 04:31N 36°09' W 005°26'0 0.0
2018-Jul-17 04:00N 36°09' W 005°26'0 0.0
2018-Jul-17 03:30N 36°09' W 005°26'0 0.0
2018-Jul-17 02:59N 36°09' W 005°26'0 0.0
2018-Jul-17 02:30N 36°09' W 005°26'0 0.0
2018-Jul-17 02:00N 36°09' W 005°26'0 0.0
2018-Jul-17 01:31N 36°09' W 005°26'0 0.0
2018-Jul-17 01:00N 36°09' W 005°26'0 0.0
2018-Jul-17 00:30N 36°09' W 005°26'0 0.0
2018-Jul-16 23:29N 36°09' W 005°26'0 0.0
2018-Jul-16 23:00N 36°09' W 005°26'0 0.0
2018-Jul-16 22:00N 36°09' W 005°26'0 0.0
2018-Jul-16 21:28N 36°09' W 005°26'0 0.0
2018-Jul-16 20:58N 36°09' W 005°26'0 0.0
2018-Jul-16 20:29N 36°09' W 005°26'0 0.0
2018-Jul-16 20:00N 36°09' W 005°26'0 0.0
2018-Jul-16 19:28N 36°09' W 005°26'0 0.0
2018-Jul-16 19:00N 36°09' W 005°26'0 0.0
2018-Jul-16 18:27N 36°09' W 005°26'1 2.2
2018-Jul-16 17:55N 36°09' W 005°24'2 3.8
2018-Jul-16 17:25N 36°08' W 005°22'0 0.0
2018-Jul-16 17:00N 36°08' W 005°22'0 0.1
2018-Jul-16 16:30N 36°08' W 005°22'0 0.0
2018-Jul-16 15:59N 36°08' W 005°22'0 0.0
2018-Jul-16 15:28N 36°08' W 005°22'0 0.1
2018-Jul-16 15:00N 36°08' W 005°22'0 0.4
2018-Jul-16 14:30N 36°08' W 005°22'0 0.0
2018-Jul-16 14:00N 36°08' W 005°22'0 0.2
2018-Jul-16 13:31N 36°08' W 005°22'3 0.5
2018-Jul-16 06:38N 36°10' W 005°26'0 0.1
2018-Jul-16 06:30N 36°10' W 005°26'0 0.0
2018-Jul-16 05:32N 36°10' W 005°26'0 0.2
2018-Jul-16 05:30N 36°10' W 005°26'0 0.0
2018-Jul-16 04:19N 36°10' W 005°26'0 0.1
2018-Jul-16 03:51N 36°10' W 005°26'0 0.0
2018-Jul-16 03:22N 36°10' W 005°26'0 0.0
2018-Jul-16 02:33N 36°10' W 005°26'0 0.1
2018-Jul-16 02:27N 36°10' W 005°26'0 0.0
2018-Jul-16 01:53N 36°10' W 005°26'0 0.0
2018-Jul-16 01:27N 36°10' W 005°26'0 0.0
2018-Jul-16 00:56N 36°10' W 005°26'0 0.0
2018-Jul-16 00:30N 36°10' W 005°26'2 3.2
2018-Jul-15 23:59N 36°09' W 005°24'2 5.1
2018-Jul-15 23:30N 36°07' W 005°22'0 0.4
2018-Jul-15 23:00N 36°07' W 005°22'0 0.1
2018-Jul-15 22:05N 36°07' W 005°22'0 0.2
2018-Jul-15 21:59N 36°07' W 005°22'0 0.2
2018-Jul-15 21:30N 36°07' W 005°22'0 0.0
2018-Jul-15 20:59N 36°07' W 005°22'0 0.0
2018-Jul-15 20:01N 36°07' W 005°22'0 2.0
2018-Jul-15 20:00N 36°07' W 005°22'2 0.8
2018-Jul-15 17:09N 36°09' W 005°22'0 0.5
2018-Jul-15 17:00N 36°09' W 005°23'1 2.4
2018-Jul-15 16:30N 36°08' W 005°22'0 0.2
2018-Jul-15 16:00N 36°08' W 005°22'0 0.1
2018-Jul-15 15:30N 36°08' W 005°22'0 0.1
2018-Jul-15 15:00N 36°08' W 005°22'0 0.0
2018-Jul-15 13:33N 36°08' W 005°22'0 0.1
2018-Jul-15 13:30N 36°08' W 005°22'0 0.0
2018-Jul-15 12:59N 36°08' W 005°22'0 0.0
2018-Jul-15 12:30N 36°08' W 005°22'0 0.1
2018-Jul-15 12:00N 36°08' W 005°22'0 0.1
2018-Jul-15 11:16N 36°08' W 005°22'3 6.0
2018-Jul-15 10:46N 36°09' W 005°26'1 0.5
2018-Jul-15 09:38N 36°08' W 005°26'0 0.0
2018-Jul-15 09:25N 36°08' W 005°26'0 0.0
2018-Jul-15 09:00N 36°08' W 005°26'0 0.0
2018-Jul-15 08:30N 36°08' W 005°26'0 0.0
2018-Jul-15 08:00N 36°08' W 005°26'0 0.0
2018-Jul-15 07:27N 36°08' W 005°26'0 0.0
2018-Jul-15 07:00N 36°08' W 005°26'0 0.0
2018-Jul-15 06:19N 36°08' W 005°26'0 0.0
2018-Jul-15 06:00N 36°08' W 005°26'0 0.0
2018-Jul-15 05:30N 36°08' W 005°26'0 0.0
2018-Jul-15 05:01N 36°08' W 005°26'0 0.0
2018-Jul-15 04:30N 36°08' W 005°26'1 2.8
2018-Jul-15 03:59N 36°09' W 005°24'3 6.0
2018-Jul-15 03:30N 36°07' W 005°22'0 0.9
2018-Jul-15 03:00N 36°07' W 005°21'0 0.0
2018-Jul-15 02:30N 36°07' W 005°21'0 0.0
2018-Jul-15 02:00N 36°07' W 005°21'0 0.0
2018-Jul-15 01:30N 36°07' W 005°21'0 0.0
2018-Jul-15 01:00N 36°07' W 005°21'0 0.1
2018-Jul-15 00:30N 36°07' W 005°21'0 0.0
2018-Jul-15 00:00N 36°07' W 005°21'0 0.0
2018-Jul-14 23:30N 36°07' W 005°21'0 0.0
2018-Jul-14 22:58N 36°07' W 005°21'0 0.2
2018-Jul-14 22:30N 36°07' W 005°21'2 1.2
2018-Jul-14 20:31N 36°09' W 005°22'0 0.0
2018-Jul-14 20:30N 36°09' W 005°22'0 0.0
2018-Jul-14 20:00N 36°09' W 005°22'0 0.0
2018-Jul-14 19:30N 36°09' W 005°22'0 0.0
2018-Jul-14 19:01N 36°09' W 005°22'0 0.0
2018-Jul-14 18:27N 36°09' W 005°22'0 0.1
2018-Jul-14 18:00N 36°09' W 005°22'0 0.1
2018-Jul-14 17:30N 36°09' W 005°22'1 2.1
2018-Jul-14 17:00N 36°08' W 005°23'0 0.3
2018-Jul-14 16:29N 36°08' W 005°23'0 0.0
2018-Jul-14 16:00N 36°08' W 005°23'0 0.0
2018-Jul-14 15:30N 36°08' W 005°23'0 0.1
2018-Jul-14 15:00N 36°08' W 005°23'0 0.0
2018-Jul-14 14:29N 36°08' W 005°23'0 0.0
2018-Jul-14 13:31N 36°08' W 005°23'0 0.0
2018-Jul-14 13:00N 36°08' W 005°23'0 0.2
2018-Jul-14 12:30N 36°08' W 005°23'0 0.2
2018-Jul-14 11:21N 36°08' W 005°23'0 0.0
2018-Jul-14 10:12N 36°08' W 005°23'0 0.0
2018-Jul-14 10:00N 36°08' W 005°23'0 0.0
2018-Jul-14 09:30N 36°08' W 005°23'0 0.1
2018-Jul-14 09:00N 36°08' W 005°23'3 1.0
2018-Jul-14 06:23N 36°08' W 005°26'0 0.0
2018-Jul-14 06:00N 36°08' W 005°26'0 0.0
2018-Jul-14 05:29N 36°08' W 005°26'0 0.0
2018-Jul-14 04:53N 36°08' W 005°26'0 0.0
2018-Jul-14 04:30N 36°08' W 005°26'0 0.0
2018-Jul-14 03:55N 36°08' W 005°26'0 0.0
2018-Jul-14 03:22N 36°08' W 005°26'0 0.0
2018-Jul-14 03:00N 36°08' W 005°26'0 0.0
2018-Jul-14 02:30N 36°08' W 005°26'0 0.0
2018-Jul-14 02:00N 36°08' W 005°26'0 0.0
2018-Jul-14 01:30N 36°08' W 005°26'1 2.6
2018-Jul-14 00:58N 36°09' W 005°24'3 5.9
2018-Jul-14 00:30N 36°07' W 005°22'0 0.1
2018-Jul-14 00:00N 36°07' W 005°22'0 0.1
2018-Jul-13 23:30N 36°07' W 005°22'0 0.1
2018-Jul-13 22:46N 36°07' W 005°22'0 0.1
2018-Jul-13 21:33N 36°07' W 005°22'0 0.2
2018-Jul-13 21:26N 36°07' W 005°22'0 0.3
2018-Jul-13 20:50N 36°07' W 005°22'0 0.0
2018-Jul-13 20:28N 36°07' W 005°22'0 0.4
2018-Jul-13 19:26N 36°07' W 005°22'0 0.1
2018-Jul-13 18:53N 36°07' W 005°22'0 0.1
2018-Jul-13 18:28N 36°07' W 005°22'0 0.1
2018-Jul-13 17:56N 36°07' W 005°22'0 0.1
2018-Jul-13 17:23N 36°07' W 005°22'0 0.1
2018-Jul-13 16:24N 36°08' W 005°22'0 0.0
2018-Jul-13 12:09N 36°07' W 005°22'0 0.0
2018-Jul-13 11:51N 36°07' W 005°22'  

Dump ship's entire track history